createdAt,value
2018-02-01T00:01:28.251Z,83.12
2018-02-01T00:03:54.818Z,83.52
2018-02-01T00:06:22.183Z,83.50
2018-02-01T00:08:48.760Z,83.19
2018-02-01T00:11:15.409Z,83.52
2018-02-01T00:13:42.026Z,83.64
2018-02-01T00:16:08.607Z,83.23
2018-02-01T00:18:35.481Z,83.23
2018-02-01T00:21:02.138Z,83.14
2018-02-01T00:23:28.742Z,83.29
2018-02-01T00:25:55.498Z,83.41
2018-02-01T00:28:22.074Z,83.30
2018-02-01T00:30:48.692Z,83.05
2018-02-01T00:33:15.293Z,82.89
2018-02-01T00:35:41.945Z,83.51
2018-02-01T00:38:08.595Z,83.78
2018-02-01T00:40:35.269Z,83.84
2018-02-01T00:43:01.877Z,83.51
2018-02-01T00:45:28.575Z,83.54
2018-02-01T00:47:55.231Z,83.59
2018-02-01T00:50:21.850Z,83.50
2018-02-01T00:52:49.226Z,83.63
2018-02-01T00:55:15.836Z,83.30
2018-02-01T00:57:42.438Z,83.00
2018-02-01T01:00:09.154Z,82.81
2018-02-01T01:02:35.756Z,82.73
2018-02-01T01:05:03.161Z,83.33
2018-02-01T01:07:29.778Z,83.28
2018-02-01T01:09:56.343Z,83.00
2018-02-01T01:12:22.937Z,83.28
2018-02-01T01:14:49.564Z,83.62
2018-02-01T01:17:16.966Z,83.42
2018-02-01T01:19:44.325Z,83.43
2018-02-01T01:22:10.890Z,83.76
2018-02-01T01:24:37.504Z,83.77
2018-02-01T01:27:04.142Z,83.43
2018-02-01T01:29:31.514Z,83.40
2018-02-01T01:31:58.143Z,83.12
2018-02-01T01:34:24.769Z,82.93
2018-02-01T01:36:51.415Z,83.23
2018-02-01T01:39:18.010Z,83.62
2018-02-01T01:41:44.614Z,83.61
2018-02-01T01:44:12.000Z,83.56
2018-02-01T01:46:38.751Z,83.56
2018-02-01T01:49:05.333Z,83.08
2018-02-01T01:51:31.977Z,83.48
2018-02-01T01:53:58.702Z,83.67
2018-02-01T01:56:25.339Z,83.65
2018-02-01T01:58:51.966Z,83.29
2018-02-01T02:01:18.542Z,83.12
2018-02-01T02:03:45.178Z,83.09
2018-02-01T02:06:11.801Z,83.18
2018-02-01T02:08:38.393Z,83.25
2018-02-01T02:11:04.989Z,83.02
2018-02-01T02:13:31.633Z,82.79
2018-02-01T02:15:58.994Z,82.97
2018-02-01T02:18:25.558Z,83.02
2018-02-01T02:20:52.289Z,83.13
2018-02-01T02:23:18.944Z,83.35
2018-02-01T02:25:45.577Z,83.48
2018-02-01T02:28:12.200Z,83.63
2018-02-01T02:30:38.819Z,83.54
2018-02-01T02:33:05.422Z,83.58
2018-02-01T02:35:32.034Z,83.66
2018-02-01T02:37:58.597Z,83.47
2018-02-01T02:40:25.986Z,82.90
2018-02-01T02:42:52.631Z,82.87
2018-02-01T02:45:19.205Z,82.77
2018-02-01T02:47:45.784Z,82.81
2018-02-01T02:50:13.139Z,82.63
2018-02-01T02:52:39.767Z,82.12
2018-02-01T02:55:06.421Z,82.24
2018-02-01T02:57:33.724Z,82.19
2018-02-01T03:00:00.326Z,82.18
2018-02-01T03:02:26.934Z,82.31
2018-02-01T03:04:54.294Z,82.43
2018-02-01T03:07:21.631Z,82.51
2018-02-01T03:09:49.071Z,82.13
2018-02-01T03:12:15.711Z,82.52
2018-02-01T03:14:42.351Z,82.50
2018-02-01T03:17:08.999Z,82.45
2018-02-01T03:19:35.590Z,82.21
2018-02-01T03:22:02.219Z,82.25
2018-02-01T03:24:28.819Z,82.62
2018-02-01T03:26:56.139Z,82.55
2018-02-01T03:29:22.746Z,82.67
2018-02-01T03:31:49.358Z,82.94
2018-02-01T03:34:15.974Z,83.06
2018-02-01T03:36:43.398Z,83.05
2018-02-01T03:39:09.950Z,82.84
2018-02-01T03:41:36.551Z,82.97
2018-02-01T03:44:03.148Z,82.83
2018-02-01T03:46:30.491Z,83.06
2018-02-01T03:48:57.099Z,83.29
2018-02-01T03:51:23.699Z,83.10
2018-02-01T03:53:50.303Z,83.31
2018-02-01T03:56:16.938Z,83.23
2018-02-01T03:58:43.499Z,83.15
2018-02-01T04:01:10.098Z,83.47
2018-02-01T04:03:36.809Z,83.33
2018-02-01T04:06:04.151Z,83.71
2018-02-01T04:08:30.730Z,83.88
2018-02-01T04:10:57.355Z,83.43
2018-02-01T04:13:23.946Z,83.24
2018-02-01T04:15:50.684Z,82.96
2018-02-01T04:18:17.342Z,82.99
2018-02-01T04:20:43.935Z,83.25
2018-02-01T04:23:10.530Z,83.49
2018-02-01T04:25:37.134Z,83.51
2018-02-01T04:28:04.434Z,83.23
2018-02-01T04:30:31.033Z,82.92
2018-02-01T04:32:57.651Z,83.44
2018-02-01T04:35:24.950Z,83.11
2018-02-01T04:37:51.566Z,83.53
2018-02-01T04:40:18.219Z,83.53
2018-02-01T04:42:44.823Z,83.35
2018-02-01T04:45:11.463Z,83.47
2018-02-01T04:47:38.839Z,82.99
2018-02-01T04:50:05.439Z,83.36
2018-02-01T04:52:32.748Z,83.18
2018-02-01T04:54:59.357Z,83.26
2018-02-01T04:57:25.939Z,83.30
2018-02-01T04:59:52.584Z,83.28
2018-02-01T05:02:19.160Z,83.17
2018-02-01T05:04:45.880Z,83.17
2018-02-01T05:07:13.249Z,83.12
2018-02-01T05:09:39.848Z,83.00
2018-02-01T05:12:06.429Z,82.98
2018-02-01T05:14:32.994Z,83.34
2018-02-01T05:16:59.668Z,83.46
2018-02-01T05:19:26.283Z,83.51
2018-02-01T05:21:52.885Z,83.36
2018-02-01T05:24:19.450Z,83.27
2018-02-01T05:26:46.070Z,83.11
2018-02-01T05:29:12.665Z,83.03
2018-02-01T05:31:39.994Z,83.30
2018-02-01T05:34:07.423Z,83.43
2018-02-01T05:36:34.044Z,83.56
2018-02-01T05:39:00.643Z,83.65
2018-02-01T05:41:27.981Z,83.88
2018-02-01T05:43:54.591Z,83.75
2018-02-01T05:46:21.179Z,84.06
2018-02-01T05:48:48.525Z,84.10
2018-02-01T05:51:15.878Z,84.13
2018-02-01T05:53:42.543Z,83.97
2018-02-01T05:56:09.101Z,83.67
2018-02-01T05:58:36.014Z,83.81
2018-02-01T06:01:03.526Z,83.72
2018-02-01T06:03:30.133Z,83.63
2018-02-01T06:05:56.747Z,83.54
2018-02-01T06:08:23.375Z,83.34
2018-02-01T06:10:50.807Z,82.97
2018-02-01T06:13:18.185Z,82.79
2018-02-01T06:15:44.834Z,82.92
2018-02-01T06:18:11.480Z,83.01
2018-02-01T06:20:38.068Z,82.98
2018-02-01T06:23:04.706Z,82.99
2018-02-01T06:25:31.394Z,83.40
2018-02-01T06:27:58.003Z,83.69
2018-02-01T06:30:24.703Z,83.96
2018-02-01T06:32:51.281Z,83.32
2018-02-01T06:35:18.630Z,83.35
2018-02-01T06:37:45.237Z,83.14
2018-02-01T06:40:11.862Z,83.02
2018-02-01T06:42:38.785Z,82.71
2018-02-01T06:45:05.442Z,82.59
2018-02-01T06:47:32.028Z,82.71
2018-02-01T06:49:58.641Z,82.63
2018-02-01T06:52:25.226Z,82.96
2018-02-01T06:54:51.848Z,82.87
2018-02-01T06:57:19.198Z,82.96
2018-02-01T06:59:46.556Z,83.12
2018-02-01T07:02:13.910Z,83.26
2018-02-01T07:04:41.310Z,83.03
2018-02-01T07:07:07.898Z,82.80
2018-02-01T07:09:34.498Z,82.87
2018-02-01T07:12:01.079Z,82.61
2018-02-01T07:14:27.786Z,82.80
2018-02-01T07:16:55.148Z,82.52
2018-02-01T07:19:22.496Z,82.22
2018-02-01T07:21:49.855Z,82.08
2018-02-01T07:24:16.423Z,81.43
2018-02-01T07:26:43.049Z,81.17
2018-02-01T07:29:09.669Z,80.55
2018-02-01T07:31:36.990Z,80.66
2018-02-01T07:34:03.652Z,80.77
2018-02-01T07:36:30.217Z,79.71
2018-02-01T07:38:56.908Z,79.57
2018-02-01T07:41:23.498Z,79.32
2018-02-01T07:43:50.934Z,79.26
2018-02-01T07:46:22.601Z,79.17
2018-02-01T07:48:49.233Z,78.72
2018-02-01T07:51:15.823Z,77.46
2018-02-01T07:53:42.482Z,77.76
2018-02-01T07:56:09.091Z,76.31
2018-02-01T07:58:35.703Z,75.85
2018-02-01T08:01:02.331Z,75.37
2018-02-01T08:03:28.940Z,75.72
2018-02-01T08:05:56.263Z,76.13
2018-02-01T08:08:22.917Z,76.64
2018-02-01T08:10:49.538Z,77.05
2018-02-01T08:13:16.145Z,76.93
2018-02-01T08:15:42.853Z,76.67
2018-02-01T08:18:10.219Z,76.15
2018-02-01T08:20:36.837Z,75.23
2018-02-01T08:23:04.178Z,74.98
2018-02-01T08:25:30.906Z,75.13
2018-02-01T08:27:58.302Z,74.77
2018-02-01T08:30:25.629Z,74.82
2018-02-01T08:32:52.261Z,75.70
2018-02-01T08:35:18.840Z,75.64
2018-02-01T08:37:46.158Z,75.82
2018-02-01T08:40:12.760Z,76.38
2018-02-01T08:42:39.368Z,76.45
2018-02-01T08:45:05.999Z,77.44
2018-02-01T08:47:32.577Z,77.67
2018-02-01T08:49:59.251Z,77.71
2018-02-01T08:52:25.878Z,77.54
2018-02-01T08:54:53.562Z,77.62
2018-02-01T08:57:20.892Z,77.33
2018-02-01T08:59:47.511Z,77.05
2018-02-01T09:02:14.115Z,77.22
2018-02-01T09:04:40.718Z,77.57
2018-02-01T09:07:07.307Z,77.36
2018-02-01T09:09:33.867Z,77.15
2018-02-01T09:12:00.462Z,76.52
2018-02-01T09:14:27.310Z,76.16
2018-02-01T09:16:54.010Z,75.66
2018-02-01T09:19:20.584Z,76.04
2018-02-01T09:21:47.183Z,75.46
2018-02-01T09:24:13.770Z,76.07
2018-02-01T09:26:40.415Z,76.32
2018-02-01T09:29:07.103Z,75.77
2018-02-01T09:31:33.707Z,76.02
2018-02-01T09:34:00.341Z,75.49
2018-02-01T09:36:26.940Z,75.77
2018-02-01T09:38:53.541Z,75.84
2018-02-01T09:41:21.117Z,75.76
2018-02-01T09:43:47.847Z,75.02
2018-02-01T09:46:15.191Z,74.90
2018-02-01T09:48:41.856Z,74.72
2018-02-01T09:51:08.440Z,74.62
2018-02-01T09:53:35.028Z,74.24
2018-02-01T09:56:02.392Z,73.92
2018-02-01T09:58:29.096Z,73.19
2018-02-01T10:00:55.660Z,73.16
2018-02-01T10:03:22.332Z,73.40
2018-02-01T10:05:48.940Z,73.85
2018-02-01T10:08:15.541Z,73.98
2018-02-01T10:10:42.071Z,74.41
2018-02-01T10:13:08.711Z,74.98
2018-02-01T10:15:35.254Z,74.79
2018-02-01T10:18:02.633Z,73.72
2018-02-01T10:20:29.234Z,73.92
2018-02-01T10:22:55.999Z,74.00
2018-02-01T10:25:23.322Z,73.38
2018-02-01T10:27:49.946Z,73.31
2018-02-01T10:30:16.613Z,73.28
2018-02-01T10:32:43.161Z,73.49
2018-02-01T10:35:10.514Z,73.19
2018-02-01T10:37:37.850Z,73.16
2018-02-01T10:40:04.437Z,73.52
2018-02-01T10:42:30.994Z,72.37
2018-02-01T10:44:57.593Z,72.75
2018-02-01T10:47:24.300Z,72.77
2018-02-01T10:49:50.843Z,72.38
2018-02-01T10:52:17.444Z,73.04
2018-02-01T10:54:44.054Z,72.44
2018-02-01T10:57:10.665Z,72.93
2018-02-01T10:59:37.199Z,73.46
2018-02-01T11:02:04.578Z,73.54
2018-02-01T11:04:31.226Z,72.94
2018-02-01T11:06:57.838Z,72.89
2018-02-01T11:09:25.371Z,72.42
2018-02-01T11:11:52.032Z,72.40
2018-02-01T11:14:18.614Z,72.85
2018-02-01T11:16:45.268Z,73.29
2018-02-01T11:19:11.787Z,72.83
2018-02-01T11:21:38.402Z,72.54
2018-02-01T11:24:05.004Z,72.12
2018-02-01T11:26:31.621Z,71.72
2018-02-01T11:28:58.159Z,71.95
2018-02-01T11:31:25.179Z,72.49
2018-02-01T11:33:51.891Z,72.66
2018-02-01T11:36:18.491Z,73.00
2018-02-01T11:38:45.131Z,72.31
2018-02-01T11:41:12.470Z,72.02
2018-02-01T11:43:39.135Z,71.15
2018-02-01T11:46:08.138Z,71.25
2018-02-01T11:48:34.722Z,71.34
2018-02-01T11:51:01.343Z,70.71
2018-02-01T11:53:27.986Z,70.75
2018-02-01T11:55:54.594Z,71.41
2018-02-01T11:58:21.214Z,70.73
2018-02-01T12:00:47.807Z,71.20
2018-02-01T12:03:14.448Z,70.49
2018-02-01T12:05:41.035Z,70.48
2018-02-01T12:08:07.600Z,69.74
2018-02-01T12:10:34.218Z,70.67
2018-02-01T12:13:00.847Z,71.24
2018-02-01T12:15:27.380Z,70.36
2018-02-01T12:17:53.932Z,70.22
2018-02-01T12:20:20.493Z,70.35
2018-02-01T12:22:47.051Z,70.74
2018-02-01T12:25:13.669Z,70.24
2018-02-01T12:27:40.215Z,71.09
2018-02-01T12:30:06.780Z,71.17
2018-02-01T12:32:33.332Z,70.89
2018-02-01T12:34:59.961Z,71.17
2018-02-01T12:37:26.555Z,71.87
2018-02-01T12:39:53.050Z,71.44
2018-02-01T12:42:19.616Z,71.12
2018-02-01T12:44:46.182Z,70.16
2018-02-01T12:47:12.786Z,69.03
2018-02-01T12:49:40.091Z,69.96
2018-02-01T12:52:06.635Z,69.00
2018-02-01T12:54:33.190Z,69.27
2018-02-01T12:56:59.764Z,70.31
2018-02-01T12:59:26.430Z,68.60
2018-02-01T13:01:52.951Z,67.89
2018-02-01T13:04:19.518Z,68.38
2018-02-01T13:06:46.051Z,68.09
2018-02-01T13:09:12.695Z,67.48
2018-02-01T13:11:39.268Z,65.72
2018-02-01T13:14:05.806Z,65.87
2018-02-01T13:16:32.471Z,66.13
2018-02-01T13:18:59.791Z,66.58
2018-02-01T13:21:27.086Z,66.28
2018-02-01T13:23:53.740Z,65.67
2018-02-01T13:26:20.287Z,65.12
2018-02-01T13:28:47.806Z,64.92
2018-02-01T13:31:14.543Z,65.42
2018-02-01T13:33:41.172Z,64.94
2018-02-01T13:36:07.876Z,64.69
2018-02-01T13:38:35.195Z,65.17
2018-02-01T13:41:01.834Z,64.69
2018-02-01T13:43:28.382Z,64.80
2018-02-01T13:45:55.934Z,64.92
2018-02-01T13:48:22.513Z,65.31
2018-02-01T13:50:49.922Z,64.81
2018-02-01T13:53:16.527Z,64.60
2018-02-01T13:55:43.186Z,64.81
2018-02-01T13:58:09.720Z,64.03
2018-02-01T14:00:36.310Z,64.58
2018-02-01T14:03:02.894Z,64.37
2018-02-01T14:05:29.526Z,64.97
2018-02-01T14:07:56.107Z,65.13
2018-02-01T14:10:23.411Z,64.60
2018-02-01T14:12:50.042Z,64.14
2018-02-01T14:15:16.622Z,64.50
2018-02-01T14:17:43.157Z,65.18
2018-02-01T14:20:09.832Z,64.69
2018-02-01T14:22:36.403Z,64.31
2018-02-01T14:25:02.992Z,64.03
2018-02-01T14:27:29.547Z,63.55
2018-02-01T14:29:56.132Z,64.72
2018-02-01T14:32:22.756Z,64.49
2018-02-01T14:34:49.350Z,63.86
2018-02-01T14:37:15.963Z,64.19
2018-02-01T14:39:42.490Z,63.85
2018-02-01T14:42:09.064Z,64.51
2018-02-01T14:44:35.611Z,64.24
2018-02-01T14:47:02.200Z,64.42
2018-02-01T14:49:29.674Z,64.67
2018-02-01T14:51:56.965Z,64.33
2018-02-01T14:54:23.521Z,64.95
2018-02-01T14:56:50.085Z,63.77
2018-02-01T14:59:17.400Z,64.37
2018-02-01T15:01:43.973Z,64.77
2018-02-01T15:04:10.528Z,63.93
2018-02-01T15:06:37.840Z,64.32
2018-02-01T15:09:04.471Z,64.93
2018-02-01T15:11:31.018Z,64.73
2018-02-01T15:13:57.622Z,65.01
2018-02-01T15:16:24.285Z,65.12
2018-02-01T15:18:50.807Z,65.02
2018-02-01T15:21:17.338Z,65.10
2018-02-01T15:23:43.982Z,65.13
2018-02-01T15:26:10.550Z,65.53
2018-02-01T15:28:37.097Z,66.24
2018-02-01T15:31:04.395Z,65.54
2018-02-01T15:33:31.047Z,66.13
2018-02-01T15:35:57.623Z,66.55
2018-02-01T15:38:24.964Z,66.42
2018-02-01T15:40:51.536Z,66.25
2018-02-01T15:43:18.132Z,66.90
2018-02-01T15:45:44.694Z,67.09
2018-02-01T15:48:13.097Z,66.88
2018-02-01T15:50:39.609Z,67.25
2018-02-01T15:53:06.882Z,67.38
2018-02-01T15:55:33.551Z,67.82
2018-02-01T15:58:00.099Z,67.64
2018-02-01T16:00:26.761Z,67.79
2018-02-01T16:02:53.314Z,67.42
2018-02-01T16:05:19.878Z,67.49
2018-02-01T16:07:46.494Z,68.19
2018-02-01T16:10:13.078Z,68.33
2018-02-01T16:12:39.705Z,67.97
2018-02-01T16:15:06.306Z,68.22
2018-02-01T16:17:32.920Z,68.17
2018-02-01T16:20:00.290Z,68.45
2018-02-01T16:22:27.642Z,68.28
2018-02-01T16:24:54.222Z,67.96
2018-02-01T16:27:20.794Z,67.79
2018-02-01T16:29:47.395Z,67.31
2018-02-01T16:32:14.045Z,67.06
2018-02-01T16:34:40.634Z,67.51
2018-02-01T16:37:07.215Z,67.87
2018-02-01T16:39:33.795Z,68.36
2018-02-01T16:42:01.159Z,68.21
2018-02-01T16:44:27.727Z,67.85
2018-02-01T16:46:54.299Z,67.66
2018-02-01T16:49:21.662Z,67.78
2018-02-01T16:51:49.195Z,67.45
2018-02-01T16:54:15.762Z,67.52
2018-02-01T16:56:43.097Z,67.72
2018-02-01T16:59:09.665Z,67.68
2018-02-01T17:01:36.245Z,67.92
2018-02-01T17:04:02.891Z,68.22
2018-02-01T17:06:29.479Z,68.56
2018-02-01T17:08:56.058Z,69.35
2018-02-01T17:11:22.662Z,70.23
2018-02-01T17:13:49.195Z,70.68
2018-02-01T17:16:15.741Z,70.72
2018-02-01T17:18:42.351Z,70.63
2018-02-01T17:21:09.683Z,71.29
2018-02-01T17:23:36.266Z,71.00
2018-02-01T17:26:02.853Z,70.95
2018-02-01T17:28:29.409Z,70.87
2018-02-01T17:30:56.740Z,71.47
2018-02-01T17:33:23.275Z,71.53
2018-02-01T17:35:50.443Z,70.89
2018-02-01T17:38:17.817Z,70.90
2018-02-01T17:40:44.399Z,71.00
2018-02-01T17:43:10.955Z,71.11
2018-02-01T17:45:38.309Z,70.85
2018-02-01T17:48:04.899Z,70.16
2018-02-01T17:50:31.491Z,70.65
2018-02-01T17:52:58.795Z,70.58
2018-02-01T17:55:25.388Z,70.61
2018-02-01T17:57:51.965Z,70.87
2018-02-01T18:00:18.575Z,70.90
2018-02-01T18:02:45.178Z,71.53
2018-02-01T18:05:11.787Z,71.72
2018-02-01T18:07:38.362Z,71.53
2018-02-01T18:10:04.924Z,71.82
2018-02-01T18:12:31.530Z,71.44
2018-02-01T18:14:58.122Z,71.76
2018-02-01T18:17:24.706Z,71.91
2018-02-01T18:19:52.126Z,72.06
2018-02-01T18:22:18.714Z,72.30
2018-02-01T18:24:45.263Z,72.80
2018-02-01T18:27:11.817Z,72.87
2018-02-01T18:29:38.416Z,72.90
2018-02-01T18:32:05.729Z,72.63
2018-02-01T18:34:32.330Z,73.20
2018-02-01T18:36:59.043Z,73.29
2018-02-01T18:39:26.341Z,73.32
2018-02-01T18:41:53.827Z,73.10
2018-02-01T18:44:20.376Z,73.46
2018-02-01T18:46:46.998Z,73.29
2018-02-01T18:49:13.596Z,72.98
2018-02-01T18:51:40.270Z,73.40
2018-02-01T18:54:06.850Z,73.13
2018-02-01T18:56:33.402Z,72.62
2018-02-01T18:59:00.012Z,72.97
2018-02-01T19:01:26.585Z,72.83
2018-02-01T19:03:53.200Z,72.65
2018-02-01T19:06:19.771Z,72.93
2018-02-01T19:08:46.339Z,72.90
2018-02-01T19:11:12.934Z,72.31
2018-02-01T19:13:39.482Z,72.26
2018-02-01T19:16:06.039Z,72.35
2018-02-01T19:18:32.671Z,72.34
2018-02-01T19:20:59.273Z,72.23
2018-02-01T19:23:25.851Z,72.42
2018-02-01T19:25:52.554Z,71.50
2018-02-01T19:28:19.127Z,72.23
2018-02-01T19:30:45.770Z,72.31
2018-02-01T19:33:12.387Z,72.55
2018-02-01T19:35:38.950Z,72.91
2018-02-01T19:38:06.259Z,73.09
2018-02-01T19:40:32.863Z,72.90
2018-02-01T19:43:00.174Z,72.58
2018-02-01T19:45:26.785Z,71.89
2018-02-01T19:47:54.342Z,71.88
2018-02-01T19:50:21.036Z,71.81
2018-02-01T19:52:47.789Z,71.85
2018-02-01T19:55:14.360Z,72.21
2018-02-01T19:57:40.962Z,72.03
2018-02-01T20:00:07.552Z,72.28
2018-02-01T20:02:34.170Z,72.29
2018-02-01T20:05:00.727Z,72.03
2018-02-01T20:07:27.316Z,72.34
2018-02-01T20:09:53.890Z,72.31
2018-02-01T20:12:20.505Z,72.18
2018-02-01T20:14:47.120Z,72.07
2018-02-01T20:17:14.417Z,71.86
2018-02-01T20:19:41.025Z,72.01
2018-02-01T20:22:07.649Z,72.10
2018-02-01T20:24:34.230Z,72.18
2018-02-01T20:27:01.632Z,72.43
2018-02-01T20:29:28.950Z,72.05
2018-02-01T20:31:55.522Z,72.46
2018-02-01T20:34:22.897Z,72.37
2018-02-01T20:36:49.448Z,72.43
2018-02-01T20:39:16.061Z,72.87
2018-02-01T20:41:42.619Z,72.44
2018-02-01T20:44:09.220Z,72.47
2018-02-01T20:46:36.560Z,72.64
2018-02-01T20:49:03.134Z,72.82
2018-02-01T20:51:29.777Z,73.00
2018-02-01T20:53:56.365Z,73.04
2018-02-01T20:56:22.996Z,73.34
2018-02-01T20:58:49.555Z,73.43
2018-02-01T21:01:16.157Z,73.49
2018-02-01T21:03:42.794Z,73.02
2018-02-01T21:06:09.465Z,73.89
2018-02-01T21:08:36.759Z,75.22
2018-02-01T21:11:03.373Z,76.84
2018-02-01T21:13:29.957Z,78.54
2018-02-01T21:15:56.605Z,79.08
2018-02-01T21:18:23.167Z,79.18
2018-02-01T21:20:49.995Z,79.22
2018-02-01T21:23:16.555Z,78.63
2018-02-01T21:25:43.878Z,79.24
2018-02-01T21:28:11.491Z,79.23
2018-02-01T21:30:38.076Z,78.86
2018-02-01T21:33:04.650Z,78.79
2018-02-01T21:35:31.288Z,78.57
2018-02-01T21:37:57.880Z,78.45
2018-02-01T21:40:24.500Z,77.88
2018-02-01T21:42:51.094Z,78.48
2018-02-01T21:45:17.610Z,78.53
2018-02-01T21:47:44.953Z,79.46
2018-02-01T21:50:12.536Z,79.87
2018-02-01T21:52:39.202Z,79.66
2018-02-01T21:55:05.818Z,79.95
2018-02-01T21:57:32.479Z,79.81
2018-02-01T21:59:59.802Z,80.32
2018-02-01T22:02:26.616Z,80.36
2018-02-01T22:04:53.202Z,80.41
2018-02-01T22:07:23.790Z,80.66
2018-02-01T22:09:52.161Z,80.45
2018-02-01T22:12:19.711Z,80.49
2018-02-01T22:14:46.920Z,81.07
2018-02-01T22:17:13.615Z,81.23
2018-02-01T22:19:40.219Z,81.06
2018-02-01T22:22:06.850Z,81.47
2018-02-01T22:24:33.611Z,81.76
2018-02-01T22:27:02.671Z,81.57
2018-02-01T22:29:29.278Z,81.66
2018-02-01T22:31:55.911Z,81.11
2018-02-01T22:34:22.549Z,80.73
2018-02-01T22:36:49.138Z,80.69
2018-02-01T22:39:16.505Z,80.74
2018-02-01T22:41:43.205Z,80.50
2018-02-01T22:44:09.807Z,80.29
2018-02-01T22:46:36.445Z,80.20
2018-02-01T22:49:03.179Z,80.10
2018-02-01T22:51:29.867Z,80.09
2018-02-01T22:53:57.233Z,80.14
2018-02-01T22:56:23.871Z,80.39
2018-02-01T22:58:50.596Z,80.47
2018-02-01T23:01:17.250Z,80.23
2018-02-01T23:03:43.901Z,81.00
2018-02-01T23:06:10.572Z,80.42
2018-02-01T23:08:37.315Z,80.42
2018-02-01T23:11:04.031Z,80.21
2018-02-01T23:13:30.654Z,79.72
2018-02-01T23:15:57.307Z,79.76
2018-02-01T23:18:23.964Z,79.63
2018-02-01T23:20:50.574Z,79.79
2018-02-01T23:23:17.192Z,79.51
2018-02-01T23:25:43.830Z,79.22
2018-02-01T23:28:11.202Z,78.71
2018-02-01T23:30:37.817Z,78.71
2018-02-01T23:33:04.450Z,78.62
2018-02-01T23:35:31.057Z,78.67
2018-02-01T23:37:57.668Z,77.87
2018-02-01T23:40:25.080Z,76.79
2018-02-01T23:42:51.717Z,76.34
2018-02-01T23:45:18.335Z,75.66
2018-02-01T23:47:44.975Z,75.50
2018-02-01T23:50:11.620Z,75.53
2018-02-01T23:52:38.262Z,75.55
2018-02-01T23:55:04.935Z,75.05
2018-02-01T23:57:31.529Z,75.21
2018-02-01T23:59:58.105Z,75.14
